sensor_id;sensor_type;location;lat;lon;timestamp;temperature;humidity
39675;DHT22;27790;50.840;4.386;2022-11-04T00:01:44;11.40;99.90
39675;DHT22;27790;50.840;4.386;2022-11-04T00:04:11;11.40;99.90
39675;DHT22;27790;50.840;4.386;2022-11-04T00:06:38;11.30;99.90
39675;DHT22;27790;50.840;4.386;2022-11-04T00:09:05;11.30;99.90
39675;DHT22;27790;50.840;4.386;2022-11-04T00:11:31;11.30;99.90
39675;DHT22;27790;50.840;4.386;2022-11-04T00:14:09;11.30;99.90
39675;DHT22;27790;50.840;4.386;2022-11-04T00:16:35;11.30;99.90
39675;DHT22;27790;50.840;4.386;2022-11-04T00:19:11;11.20;99.90
39675;DHT22;27790;50.840;4.386;2022-11-04T00:21:37;11.30;99.90
39675;DHT22;27790;50.840;4.386;2022-11-04T00:24:14;11.30;99.90
39675;DHT22;27790;50.840;4.386;2022-11-04T00:26:50;11.30;99.90
39675;DHT22;27790;50.840;4.386;2022-11-04T00:29:27;11.30;99.90
39675;DHT22;27790;50.840;4.386;2022-11-04T00:31:52;11.30;99.90
39675;DHT22;27790;50.840;4.386;2022-11-04T00:34:29;11.30;99.90
39675;DHT22;27790;50.840;4.386;2022-11-04T00:36:54;11.20;99.90
39675;DHT22;27790;50.840;4.386;2022-11-04T00:39:20;11.20;99.90
39675;DHT22;27790;50.840;4.386;2022-11-04T00:41:45;11.20;99.90
39675;DHT22;27790;50.840;4.386;2022-11-04T00:44:11;11.20;99.90
39675;DHT22;27790;50.840;4.386;2022-11-04T00:46:36;11.30;99.90
39675;DHT22;27790;50.840;4.386;2022-11-04T00:49:02;11.30;99.90
39675;DHT22;27790;50.840;4.386;2022-11-04T00:51:28;11.40;99.90
39675;DHT22;27790;50.840;4.386;2022-11-04T00:53:54;11.50;99.90
39675;DHT22;27790;50.840;4.386;2022-11-04T00:56:20;11.60;99.90
39675;DHT22;27790;50.840;4.386;2022-11-04T00:58:45;11.60;99.90
39675;DHT22;27790;50.840;4.386;2022-11-04T01:01:13;11.60;99.90
39675;DHT22;27790;50.840;4.386;2022-11-04T01:03:45;11.60;99.90
39675;DHT22;27790;50.840;4.386;2022-11-04T01:06:11;11.70;99.90
39675;DHT22;27790;50.840;4.386;2022-11-04T01:08:37;11.70;99.90
39675;DHT22;27790;50.840;4.386;2022-11-04T01:11:07;11.80;99.90
39675;DHT22;27790;50.840;4.386;2022-11-04T01:13:33;11.70;99.90
39675;DHT22;27790;50.840;4.386;2022-11-04T01:16:04;11.70;99.90
39675;DHT22;27790;50.840;4.386;2022-11-04T01:18:29;11.60;99.90
39675;DHT22;27790;50.840;4.386;2022-11-04T01:20:59;11.60;99.90
39675;DHT22;27790;50.840;4.386;2022-11-04T01:23:25;11.60;99.90
39675;DHT22;27790;50.840;4.386;2022-11-04T01:25:51;11.50;99.90
39675;DHT22;27790;50.840;4.386;2022-11-04T01:28:17;11.50;99.90
39675;DHT22;27790;50.840;4.386;2022-11-04T01:30:42;11.40;99.90
39675;DHT22;27790;50.840;4.386;2022-11-04T01:33:08;11.40;99.90
39675;DHT22;27790;50.840;4.386;2022-11-04T01:35:33;11.30;99.90
39675;DHT22;27790;50.840;4.386;2022-11-04T01:37:59;11.30;99.90
39675;DHT22;27790;50.840;4.386;2022-11-04T01:40:25;11.30;99.90
39675;DHT22;27790;50.840;4.386;2022-11-04T01:42:51;11.30;99.90
39675;DHT22;27790;50.840;4.386;2022-11-04T01:45:19;11.30;99.90
39675;DHT22;27790;50.840;4.386;2022-11-04T01:50:30;11.30;99.90
39675;DHT22;27790;50.840;4.386;2022-11-04T01:53:01;11.30;99.90
39675;DHT22;27790;50.840;4.386;2022-11-04T01:55:33;11.30;99.90
39675;DHT22;27790;50.840;4.386;2022-11-04T01:58:03;11.20;99.90
39675;DHT22;27790;50.840;4.386;2022-11-04T02:00:30;11.20;99.90
39675;DHT22;27790;50.840;4.386;2022-11-04T02:03:03;11.20;99.90
39675;DHT22;27790;50.840;4.386;2022-11-04T02:05:30;11.20;99.90
39675;DHT22;27790;50.840;4.386;2022-11-04T02:07:57;11.10;99.90
39675;DHT22;27790;50.840;4.386;2022-11-04T02:10:29;11.10;99.90
39675;DHT22;27790;50.840;4.386;2022-11-04T02:12:57;11.10;99.90
39675;DHT22;27790;50.840;4.386;2022-11-04T02:29:13;10.90;99.90
39675;DHT22;27790;50.840;4.386;2022-11-04T02:34:49;11.00;99.90
39675;DHT22;27790;50.840;4.386;2022-11-04T02:40:11;11.20;99.90
39675;DHT22;27790;50.840;4.386;2022-11-04T02:45:22;11.40;99.90
39675;DHT22;27790;50.840;4.386;2022-11-04T02:48:02;11.50;99.90
39675;DHT22;27790;50.840;4.386;2022-11-04T02:53:09;11.60;99.90
39675;DHT22;27790;50.840;4.386;2022-11-04T02:55:57;11.70;99.90
39675;DHT22;27790;50.840;4.386;2022-11-04T02:58:29;11.70;99.90
39675;DHT22;27790;50.840;4.386;2022-11-04T03:00:57;11.80;99.90
39675;DHT22;27790;50.840;4.386;2022-11-04T03:03:27;11.80;99.90
39675;DHT22;27790;50.840;4.386;2022-11-04T03:05:56;11.80;99.90
39675;DHT22;27790;50.840;4.386;2022-11-04T03:08:32;11.80;99.90
39675;DHT22;27790;50.840;4.386;2022-11-04T03:11:15;11.80;99.90
39675;DHT22;27790;50.840;4.386;2022-11-04T03:16:19;11.90;99.90
39675;DHT22;27790;50.840;4.386;2022-11-04T03:21:23;11.90;99.90
39675;DHT22;27790;50.840;4.386;2022-11-04T03:23:50;11.80;99.90
39675;DHT22;27790;50.840;4.386;2022-11-04T03:31:46;11.70;99.90
39675;DHT22;27790;50.840;4.386;2022-11-04T03:34:13;11.80;99.90
39675;DHT22;27790;50.840;4.386;2022-11-04T03:36:39;11.90;99.90
39675;DHT22;27790;50.840;4.386;2022-11-04T03:39:04;12.00;99.90
39675;DHT22;27790;50.840;4.386;2022-11-04T03:41:40;12.10;99.90
39675;DHT22;27790;50.840;4.386;2022-11-04T03:44:06;12.10;99.90
39675;DHT22;27790;50.840;4.386;2022-11-04T03:46:32;12.10;99.90
39675;DHT22;27790;50.840;4.386;2022-11-04T03:48:58;12.20;99.90
39675;DHT22;27790;50.840;4.386;2022-11-04T03:51:25;12.10;99.90
39675;DHT22;27790;50.840;4.386;2022-11-04T03:53:51;12.20;99.90
39675;DHT22;27790;50.840;4.386;2022-11-04T04:04:19;12.40;99.90
39675;DHT22;27790;50.840;4.386;2022-11-04T04:06:49;12.50;99.90
39675;DHT22;27790;50.840;4.386;2022-11-04T04:14:53;12.50;99.90
39675;DHT22;27790;50.840;4.386;2022-11-04T04:17:24;12.50;99.90
39675;DHT22;27790;50.840;4.386;2022-11-04T04:22:50;12.40;99.90
39675;DHT22;27790;50.840;4.386;2022-11-04T04:25:18;12.40;99.90
39675;DHT22;27790;50.840;4.386;2022-11-04T04:27:56;12.40;99.90
39675;DHT22;27790;50.840;4.386;2022-11-04T04:30:22;12.40;99.90
39675;DHT22;27790;50.840;4.386;2022-11-04T04:32:50;12.50;99.90
39675;DHT22;27790;50.840;4.386;2022-11-04T04:35:20;12.50;99.90
39675;DHT22;27790;50.840;4.386;2022-11-04T04:38:02;12.50;99.90
39675;DHT22;27790;50.840;4.386;2022-11-04T04:40:39;12.50;99.90
39675;DHT22;27790;50.840;4.386;2022-11-04T04:43:16;12.50;99.90
39675;DHT22;27790;50.840;4.386;2022-11-04T04:45:53;12.50;99.90
39675;DHT22;27790;50.840;4.386;2022-11-04T04:48:20;12.50;99.90
39675;DHT22;27790;50.840;4.386;2022-11-04T04:50:50;12.50;99.90
39675;DHT22;27790;50.840;4.386;2022-11-04T04:53:17;12.50;99.90
39675;DHT22;27790;50.840;4.386;2022-11-04T04:55:42;12.50;99.90
39675;DHT22;27790;50.840;4.386;2022-11-04T04:58:08;12.50;99.90
39675;DHT22;27790;50.840;4.386;2022-11-04T05:00:34;12.50;99.90
39675;DHT22;27790;50.840;4.386;2022-11-04T05:03:00;12.50;99.90
39675;DHT22;27790;50.840;4.386;2022-11-04T05:05:25;12.60;99.90
39675;DHT22;27790;50.840;4.386;2022-11-04T05:07:51;12.60;99.90
39675;DHT22;27790;50.840;4.386;2022-11-04T05:10:17;12.60;99.90
39675;DHT22;27790;50.840;4.386;2022-11-04T05:12:43;12.60;99.90
39675;DHT22;27790;50.840;4.386;2022-11-04T05:15:20;12.60;99.90
39675;DHT22;27790;50.840;4.386;2022-11-04T05:17:45;12.60;99.90
39675;DHT22;27790;50.840;4.386;2022-11-04T05:20:11;12.70;99.90
39675;DHT22;27790;50.840;4.386;2022-11-04T05:22:37;12.70;99.90
39675;DHT22;27790;50.840;4.386;2022-11-04T05:25:02;12.70;99.90
39675;DHT22;27790;50.840;4.386;2022-11-04T05:27:28;12.70;99.90
39675;DHT22;27790;50.840;4.386;2022-11-04T05:29:53;12.70;99.90
39675;DHT22;27790;50.840;4.386;2022-11-04T05:32:19;12.70;99.90
39675;DHT22;27790;50.840;4.386;2022-11-04T05:34:46;12.80;99.90
39675;DHT22;27790;50.840;4.386;2022-11-04T05:37:12;12.80;99.90
39675;DHT22;27790;50.840;4.386;2022-11-04T05:39:37;12.80;99.90
39675;DHT22;27790;50.840;4.386;2022-11-04T05:42:03;12.90;99.90
39675;DHT22;27790;50.840;4.386;2022-11-04T05:44:28;12.90;99.90
39675;DHT22;27790;50.840;4.386;2022-11-04T05:46:54;12.90;99.90
39675;DHT22;27790;50.840;4.386;2022-11-04T05:49:19;12.90;99.90
39675;DHT22;27790;50.840;4.386;2022-11-04T05:51:45;12.90;99.90
39675;DHT22;27790;50.840;4.386;2022-11-04T05:54:11;12.80;99.90
39675;DHT22;27790;50.840;4.386;2022-11-04T05:56:36;12.80;99.90
39675;DHT22;27790;50.840;4.386;2022-11-04T05:59:02;12.80;99.90
39675;DHT22;27790;50.840;4.386;2022-11-04T06:01:36;12.80;99.90
39675;DHT22;27790;50.840;4.386;2022-11-04T06:04:03;12.80;99.90
39675;DHT22;27790;50.840;4.386;2022-11-04T06:06:32;12.70;99.90
39675;DHT22;27790;50.840;4.386;2022-11-04T06:08:58;12.80;99.90
39675;DHT22;27790;50.840;4.386;2022-11-04T06:11:24;12.80;99.90
39675;DHT22;27790;50.840;4.386;2022-11-04T06:13:52;12.80;99.90
39675;DHT22;27790;50.840;4.386;2022-11-04T06:16:18;12.80;99.90
39675;DHT22;27790;50.840;4.386;2022-11-04T06:18:43;12.90;99.90
39675;DHT22;27790;50.840;4.386;2022-11-04T06:23:41;12.90;99.90
39675;DHT22;27790;50.840;4.386;2022-11-04T06:26:08;12.90;99.90
39675;DHT22;27790;50.840;4.386;2022-11-04T06:28:34;12.80;99.90
39675;DHT22;27790;50.840;4.386;2022-11-04T06:31:02;12.80;99.90
39675;DHT22;27790;50.840;4.386;2022-11-04T06:33:28;12.80;99.90
39675;DHT22;27790;50.840;4.386;2022-11-04T06:35:58;12.70;99.90
39675;DHT22;27790;50.840;4.386;2022-11-04T06:38:24;12.70;99.90
39675;DHT22;27790;50.840;4.386;2022-11-04T06:40:50;12.70;99.90
39675;DHT22;27790;50.840;4.386;2022-11-04T06:43:16;12.70;99.90
39675;DHT22;27790;50.840;4.386;2022-11-04T06:45:41;12.70;99.90
39675;DHT22;27790;50.840;4.386;2022-11-04T06:48:07;12.70;99.90
39675;DHT22;27790;50.840;4.386;2022-11-04T06:50:32;12.70;99.90
39675;DHT22;27790;50.840;4.386;2022-11-04T06:52:58;12.80;99.90
39675;DHT22;27790;50.840;4.386;2022-11-04T06:55:24;12.80;99.90
39675;DHT22;27790;50.840;4.386;2022-11-04T06:57:50;12.90;99.90
39675;DHT22;27790;50.840;4.386;2022-11-04T07:00:15;12.90;99.90
39675;DHT22;27790;50.840;4.386;2022-11-04T07:02:41;13.00;99.90
39675;DHT22;27790;50.840;4.386;2022-11-04T07:05:07;13.00;99.90
39675;DHT22;27790;50.840;4.386;2022-11-04T07:07:33;13.00;99.90
39675;DHT22;27790;50.840;4.386;2022-11-04T07:09:58;12.90;99.90
39675;DHT22;27790;50.840;4.386;2022-11-04T07:12:24;12.90;99.90
39675;DHT22;27790;50.840;4.386;2022-11-04T07:14:52;12.90;99.90
39675;DHT22;27790;50.840;4.386;2022-11-04T07:17:20;13.00;99.90
39675;DHT22;27790;50.840;4.386;2022-11-04T07:19:46;13.20;99.90
39675;DHT22;27790;50.840;4.386;2022-11-04T07:22:11;13.20;99.90
39675;DHT22;27790;50.840;4.386;2022-11-04T07:24:37;13.20;99.90
39675;DHT22;27790;50.840;4.386;2022-11-04T07:27:03;13.20;99.90
39675;DHT22;27790;50.840;4.386;2022-11-04T07:29:28;13.30;99.90
39675;DHT22;27790;50.840;4.386;2022-11-04T07:31:54;13.20;99.90
39675;DHT22;27790;50.840;4.386;2022-11-04T07:34:19;13.30;99.90
39675;DHT22;27790;50.840;4.386;2022-11-04T07:36:45;13.30;99.90
39675;DHT22;27790;50.840;4.386;2022-11-04T07:39:10;13.40;99.90
39675;DHT22;27790;50.840;4.386;2022-11-04T07:41:36;13.30;99.90
39675;DHT22;27790;50.840;4.386;2022-11-04T07:44:02;13.30;99.90
39675;DHT22;27790;50.840;4.386;2022-11-04T07:46:30;13.30;99.90
39675;DHT22;27790;50.840;4.386;2022-11-04T07:48:59;13.30;99.90
39675;DHT22;27790;50.840;4.386;2022-11-04T07:51:25;13.30;99.90
39675;DHT22;27790;50.840;4.386;2022-11-04T07:53:51;13.30;99.90
39675;DHT22;27790;50.840;4.386;2022-11-04T07:56:16;13.30;99.90
39675;DHT22;27790;50.840;4.386;2022-11-04T07:58:43;13.40;99.90
39675;DHT22;27790;50.840;4.386;2022-11-04T08:01:11;13.40;99.90
39675;DHT22;27790;50.840;4.386;2022-11-04T08:03:38;13.40;99.90
39675;DHT22;27790;50.840;4.386;2022-11-04T08:06:05;13.40;99.90
39675;DHT22;27790;50.840;4.386;2022-11-04T08:08:31;13.50;99.90
39675;DHT22;27790;50.840;4.386;2022-11-04T08:11:03;13.50;99.90
39675;DHT22;27790;50.840;4.386;2022-11-04T08:13:30;13.50;99.90
39675;DHT22;27790;50.840;4.386;2022-11-04T08:15:59;13.40;99.90
39675;DHT22;27790;50.840;4.386;2022-11-04T08:18:26;13.50;99.90
39675;DHT22;27790;50.840;4.386;2022-11-04T08:20:52;13.50;99.90
39675;DHT22;27790;50.840;4.386;2022-11-04T08:23:18;13.60;99.90
39675;DHT22;27790;50.840;4.386;2022-11-04T08:25:44;13.60;99.90
39675;DHT22;27790;50.840;4.386;2022-11-04T08:28:10;13.60;99.90
39675;DHT22;27790;50.840;4.386;2022-11-04T08:30:50;13.60;99.90
39675;DHT22;27790;50.840;4.386;2022-11-04T08:33:16;13.60;99.90
39675;DHT22;27790;50.840;4.386;2022-11-04T08:35:41;13.60;99.90
39675;DHT22;27790;50.840;4.386;2022-11-04T08:38:07;13.70;99.90
39675;DHT22;27790;50.840;4.386;2022-11-04T08:40:34;13.60;99.90
39675;DHT22;27790;50.840;4.386;2022-11-04T08:43:00;13.60;99.90
39675;DHT22;27790;50.840;4.386;2022-11-04T08:45:25;13.60;99.90
39675;DHT22;27790;50.840;4.386;2022-11-04T08:47:51;13.60;99.90
39675;DHT22;27790;50.840;4.386;2022-11-04T08:50:17;13.60;99.90
39675;DHT22;27790;50.840;4.386;2022-11-04T08:52:43;13.60;99.90
39675;DHT22;27790;50.840;4.386;2022-11-04T08:55:08;13.60;99.90
39675;DHT22;27790;50.840;4.386;2022-11-04T08:57:34;13.60;99.90
39675;DHT22;27790;50.840;4.386;2022-11-04T09:00:00;13.70;99.90
39675;DHT22;27790;50.840;4.386;2022-11-04T09:02:26;13.60;99.90
39675;DHT22;27790;50.840;4.386;2022-11-04T09:04:51;13.70;99.90
39675;DHT22;27790;50.840;4.386;2022-11-04T09:07:17;13.80;99.90
39675;DHT22;27790;50.840;4.386;2022-11-04T09:09:42;13.80;99.90
39675;DHT22;27790;50.840;4.386;2022-11-04T09:12:09;13.70;99.90
39675;DHT22;27790;50.840;4.386;2022-11-04T09:14:35;13.70;99.90
39675;DHT22;27790;50.840;4.386;2022-11-04T09:17:00;13.70;99.90
39675;DHT22;27790;50.840;4.386;2022-11-04T09:19:26;13.70;99.90
39675;DHT22;27790;50.840;4.386;2022-11-04T09:21:52;13.80;99.90
39675;DHT22;27790;50.840;4.386;2022-11-04T09:24:18;13.70;99.90
39675;DHT22;27790;50.840;4.386;2022-11-04T09:26:43;13.70;99.90
39675;DHT22;27790;50.840;4.386;2022-11-04T09:29:09;13.80;99.90
39675;DHT22;27790;50.840;4.386;2022-11-04T09:31:35;13.80;99.90
39675;DHT22;27790;50.840;4.386;2022-11-04T09:34:01;13.80;99.90
39675;DHT22;27790;50.840;4.386;2022-11-04T09:36:26;13.80;99.90
39675;DHT22;27790;50.840;4.386;2022-11-04T09:38:53;13.80;99.90
39675;DHT22;27790;50.840;4.386;2022-11-04T09:46:30;13.80;99.90
39675;DHT22;27790;50.840;4.386;2022-11-04T09:48:58;13.90;99.90
39675;DHT22;27790;50.840;4.386;2022-11-04T09:51:26;13.90;99.90
39675;DHT22;27790;50.840;4.386;2022-11-04T09:54:01;14.00;99.90
39675;DHT22;27790;50.840;4.386;2022-11-04T09:56:34;14.10;99.90
39675;DHT22;27790;50.840;4.386;2022-11-04T09:59:04;14.20;99.90
39675;DHT22;27790;50.840;4.386;2022-11-04T10:01:36;14.30;99.90
39675;DHT22;27790;50.840;4.386;2022-11-04T10:20:02;14.20;99.90
39675;DHT22;27790;50.840;4.386;2022-11-04T10:22:54;14.20;99.90
39675;DHT22;27790;50.840;4.386;2022-11-04T10:25:27;14.20;99.90
39675;DHT22;27790;50.840;4.386;2022-11-04T10:27:54;14.20;99.90
39675;DHT22;27790;50.840;4.386;2022-11-04T10:30:23;14.30;99.90
39675;DHT22;27790;50.840;4.386;2022-11-04T10:38:21;14.40;99.90
39675;DHT22;27790;50.840;4.386;2022-11-04T10:40:50;14.50;99.90
39675;DHT22;27790;50.840;4.386;2022-11-04T10:43:32;14.40;99.90
39675;DHT22;27790;50.840;4.386;2022-11-04T10:49:03;14.30;99.90
39675;DHT22;27790;50.840;4.386;2022-11-04T10:51:30;14.30;99.90
39675;DHT22;27790;50.840;4.386;2022-11-04T10:53:57;14.30;99.90
39675;DHT22;27790;50.840;4.386;2022-11-04T10:56:39;14.20;99.90
39675;DHT22;27790;50.840;4.386;2022-11-04T10:59:24;14.20;99.90
39675;DHT22;27790;50.840;4.386;2022-11-04T11:01:55;14.20;99.90
39675;DHT22;27790;50.840;4.386;2022-11-04T11:04:36;14.20;99.90
39675;DHT22;27790;50.840;4.386;2022-11-04T11:07:05;14.30;99.90
39675;DHT22;27790;50.840;4.386;2022-11-04T11:14:40;14.30;99.90
39675;DHT22;27790;50.840;4.386;2022-11-04T11:17:18;14.30;99.90
39675;DHT22;27790;50.840;4.386;2022-11-04T11:22:30;14.20;99.90
39675;DHT22;27790;50.840;4.386;2022-11-04T11:27:48;14.10;99.90
39675;DHT22;27790;50.840;4.386;2022-11-04T11:30:27;14.10;99.90
39675;DHT22;27790;50.840;4.386;2022-11-04T11:32:56;14.10;99.90
39675;DHT22;27790;50.840;4.386;2022-11-04T11:35:25;14.10;99.90
39675;DHT22;27790;50.840;4.386;2022-11-04T11:37:53;14.20;99.90
39675;DHT22;27790;50.840;4.386;2022-11-04T11:40:23;14.20;99.90
39675;DHT22;27790;50.840;4.386;2022-11-04T11:42:49;14.30;99.90
39675;DHT22;27790;50.840;4.386;2022-11-04T11:45:16;14.50;99.90
39675;DHT22;27790;50.840;4.386;2022-11-04T11:47:41;14.70;99.90
39675;DHT22;27790;50.840;4.386;2022-11-04T11:52:41;14.90;99.90
39675;DHT22;27790;50.840;4.386;2022-11-04T11:55:25;15.10;99.90
39675;DHT22;27790;50.840;4.386;2022-11-04T12:00:37;15.20;99.90
39675;DHT22;27790;50.840;4.386;2022-11-04T12:05:58;15.10;99.90
39675;DHT22;27790;50.840;4.386;2022-11-04T12:14:01;15.00;99.90
39675;DHT22;27790;50.840;4.386;2022-11-04T12:22:19;14.90;99.90
39675;DHT22;27790;50.840;4.386;2022-11-04T12:24:54;14.90;99.90
39675;DHT22;27790;50.840;4.386;2022-11-04T12:27:38;15.00;99.90
39675;DHT22;27790;50.840;4.386;2022-11-04T12:30:06;15.00;99.90
39675;DHT22;27790;50.840;4.386;2022-11-04T12:40:47;14.80;99.90
39675;DHT22;27790;50.840;4.386;2022-11-04T12:43:29;14.80;99.90
39675;DHT22;27790;50.840;4.386;2022-11-04T12:54:00;14.80;99.90
39675;DHT22;27790;50.840;4.386;2022-11-04T12:56:39;14.60;99.90
39675;DHT22;27790;50.840;4.386;2022-11-04T12:59:24;14.50;99.90
39675;DHT22;27790;50.840;4.386;2022-11-04T13:02:00;14.40;99.90
39675;DHT22;27790;50.840;4.386;2022-11-04T13:04:35;14.50;99.90
39675;DHT22;27790;50.840;4.386;2022-11-04T13:07:16;14.60;99.90
39675;DHT22;27790;50.840;4.386;2022-11-04T13:09:50;14.60;99.90
39675;DHT22;27790;50.840;4.386;2022-11-04T13:12:24;14.60;99.90
39675;DHT22;27790;50.840;4.386;2022-11-04T13:17:29;14.50;99.90
39675;DHT22;27790;50.840;4.386;2022-11-04T13:20:04;14.50;99.90
39675;DHT22;27790;50.840;4.386;2022-11-04T13:22:34;14.50;99.90
39675;DHT22;27790;50.840;4.386;2022-11-04T13:25:04;14.50;99.90
39675;DHT22;27790;50.840;4.386;2022-11-04T13:27:36;14.40;99.90
39675;DHT22;27790;50.840;4.386;2022-11-04T13:30:15;14.40;99.90
39675;DHT22;27790;50.840;4.386;2022-11-04T13:38:13;14.40;99.90
39675;DHT22;27790;50.840;4.386;2022-11-04T13:41:06;14.40;99.90
39675;DHT22;27790;50.840;4.386;2022-11-04T13:43:35;14.40;99.90
39675;DHT22;27790;50.840;4.386;2022-11-04T13:46:31;14.30;99.90
39675;DHT22;27790;50.840;4.386;2022-11-04T13:49:01;14.30;99.90
39675;DHT22;27790;50.840;4.386;2022-11-04T13:51:45;14.30;99.90
39675;DHT22;27790;50.840;4.386;2022-11-04T13:57:14;14.40;99.90
39675;DHT22;27790;50.840;4.386;2022-11-04T13:59:40;14.40;99.90
39675;DHT22;27790;50.840;4.386;2022-11-04T14:02:23;14.30;99.90
39675;DHT22;27790;50.840;4.386;2022-11-04T14:04:49;14.50;99.90
39675;DHT22;27790;50.840;4.386;2022-11-04T14:07:16;14.50;99.90
39675;DHT22;27790;50.840;4.386;2022-11-04T14:14:43;14.30;99.90
39675;DHT22;27790;50.840;4.386;2022-11-04T14:19:59;14.40;99.90
39675;DHT22;27790;50.840;4.386;2022-11-04T14:22:44;14.40;99.90
39675;DHT22;27790;50.840;4.386;2022-11-04T14:30:41;14.40;99.90
39675;DHT22;27790;50.840;4.386;2022-11-04T14:35:48;13.90;99.90
39675;DHT22;27790;50.840;4.386;2022-11-04T14:38:27;13.60;99.90
39675;DHT22;27790;50.840;4.386;2022-11-04T14:43:43;13.30;99.90
39675;DHT22;27790;50.840;4.386;2022-11-04T14:46:12;13.30;99.90
39675;DHT22;27790;50.840;4.386;2022-11-04T14:48:45;13.30;99.90
39675;DHT22;27790;50.840;4.386;2022-11-04T14:51:25;13.30;99.90
39675;DHT22;27790;50.840;4.386;2022-11-04T14:56:30;13.40;99.90
39675;DHT22;27790;50.840;4.386;2022-11-04T14:59:06;13.40;99.90
39675;DHT22;27790;50.840;4.386;2022-11-04T15:01:37;13.50;99.90
39675;DHT22;27790;50.840;4.386;2022-11-04T15:04:07;13.50;99.90
39675;DHT22;27790;50.840;4.386;2022-11-04T15:06:38;13.50;99.90
39675;DHT22;27790;50.840;4.386;2022-11-04T15:09:16;13.50;99.90
39675;DHT22;27790;50.840;4.386;2022-11-04T15:11:42;13.40;99.90
39675;DHT22;27790;50.840;4.386;2022-11-04T15:14:24;13.40;99.90
39675;DHT22;27790;50.840;4.386;2022-11-04T15:16:56;13.30;99.90
39675;DHT22;27790;50.840;4.386;2022-11-04T15:19:26;13.30;99.90
39675;DHT22;27790;50.840;4.386;2022-11-04T15:21:52;13.10;99.90
39675;DHT22;27790;50.840;4.386;2022-11-04T15:24:18;13.10;99.90
39675;DHT22;27790;50.840;4.386;2022-11-04T15:26:49;13.00;99.90
39675;DHT22;27790;50.840;4.386;2022-11-04T15:29:18;13.00;99.90
39675;DHT22;27790;50.840;4.386;2022-11-04T15:31:57;13.00;99.90
39675;DHT22;27790;50.840;4.386;2022-11-04T15:34:24;13.00;99.90
39675;DHT22;27790;50.840;4.386;2022-11-04T15:36:54;13.00;99.90
39675;DHT22;27790;50.840;4.386;2022-11-04T15:39:27;13.10;99.90
39675;DHT22;27790;50.840;4.386;2022-11-04T15:41:57;13.00;99.90
39675;DHT22;27790;50.840;4.386;2022-11-04T15:44:36;13.10;99.90
39675;DHT22;27790;50.840;4.386;2022-11-04T15:49:44;13.00;99.90
39675;DHT22;27790;50.840;4.386;2022-11-04T15:52:19;13.00;99.90
39675;DHT22;27790;50.840;4.386;2022-11-04T15:54:47;13.00;99.90
39675;DHT22;27790;50.840;4.386;2022-11-04T16:02:54;12.80;99.90
39675;DHT22;27790;50.840;4.386;2022-11-04T16:05:33;12.70;99.90
39675;DHT22;27790;50.840;4.386;2022-11-04T16:08:15;12.70;99.90
39675;DHT22;27790;50.840;4.386;2022-11-04T16:10:43;12.70;99.90
39675;DHT22;27790;50.840;4.386;2022-11-04T16:15:44;12.60;99.90
39675;DHT22;27790;50.840;4.386;2022-11-04T16:20:53;12.70;99.90
39675;DHT22;27790;50.840;4.386;2022-11-04T16:23:24;12.70;99.90
39675;DHT22;27790;50.840;4.386;2022-11-04T16:26:00;12.60;99.90
39675;DHT22;27790;50.840;4.386;2022-11-04T16:28:29;12.60;99.90
39675;DHT22;27790;50.840;4.386;2022-11-04T16:31:01;12.60;99.90
39675;DHT22;27790;50.840;4.386;2022-11-04T16:33:27;12.60;99.90
39675;DHT22;27790;50.840;4.386;2022-11-04T16:35:53;12.70;99.90
39675;DHT22;27790;50.840;4.386;2022-11-04T16:38:18;12.70;99.90
39675;DHT22;27790;50.840;4.386;2022-11-04T16:40:46;12.70;99.90
39675;DHT22;27790;50.840;4.386;2022-11-04T16:43:13;12.70;99.90
39675;DHT22;27790;50.840;4.386;2022-11-04T16:45:44;12.70;99.90
39675;DHT22;27790;50.840;4.386;2022-11-04T16:48:16;12.80;99.90
39675;DHT22;27790;50.840;4.386;2022-11-04T16:50:42;12.80;99.90
39675;DHT22;27790;50.840;4.386;2022-11-04T16:53:07;12.90;99.90
39675;DHT22;27790;50.840;4.386;2022-11-04T16:55:33;12.90;99.90
39675;DHT22;27790;50.840;4.386;2022-11-04T16:58:01;12.80;99.90
39675;DHT22;27790;50.840;4.386;2022-11-04T17:00:28;12.80;99.90
39675;DHT22;27790;50.840;4.386;2022-11-04T17:03:00;12.80;99.90
39675;DHT22;27790;50.840;4.386;2022-11-04T17:05:26;12.70;99.90
39675;DHT22;27790;50.840;4.386;2022-11-04T17:07:52;12.70;99.90
39675;DHT22;27790;50.840;4.386;2022-11-04T17:10:20;12.70;99.90
39675;DHT22;27790;50.840;4.386;2022-11-04T17:12:46;12.70;99.90
39675;DHT22;27790;50.840;4.386;2022-11-04T17:15:13;12.70;99.90
39675;DHT22;27790;50.840;4.386;2022-11-04T17:17:39;12.60;99.90
39675;DHT22;27790;50.840;4.386;2022-11-04T17:20:05;12.60;99.90
39675;DHT22;27790;50.840;4.386;2022-11-04T17:22:32;12.60;99.90
39675;DHT22;27790;50.840;4.386;2022-11-04T17:24:59;12.50;99.90
39675;DHT22;27790;50.840;4.386;2022-11-04T17:27:25;12.50;99.90
39675;DHT22;27790;50.840;4.386;2022-11-04T17:29:50;12.40;99.90
39675;DHT22;27790;50.840;4.386;2022-11-04T17:32:16;12.30;99.90
39675;DHT22;27790;50.840;4.386;2022-11-04T17:34:42;12.30;99.90
39675;DHT22;27790;50.840;4.386;2022-11-04T17:37:12;12.30;99.90
39675;DHT22;27790;50.840;4.386;2022-11-04T17:39:38;12.30;99.90
39675;DHT22;27790;50.840;4.386;2022-11-04T17:42:04;12.20;99.90
39675;DHT22;27790;50.840;4.386;2022-11-04T17:44:40;12.20;99.90
39675;DHT22;27790;50.840;4.386;2022-11-04T17:47:06;12.10;99.90
39675;DHT22;27790;50.840;4.386;2022-11-04T17:49:34;12.10;99.90
39675;DHT22;27790;50.840;4.386;2022-11-04T17:52:01;12.10;99.90
39675;DHT22;27790;50.840;4.386;2022-11-04T17:54:28;12.10;99.90
39675;DHT22;27790;50.840;4.386;2022-11-04T17:56:57;12.00;99.90
39675;DHT22;27790;50.840;4.386;2022-11-04T17:59:23;12.00;99.90
39675;DHT22;27790;50.840;4.386;2022-11-04T18:01:49;11.90;99.90
39675;DHT22;27790;50.840;4.386;2022-11-04T18:04:22;11.80;99.90
39675;DHT22;27790;50.840;4.386;2022-11-04T18:06:48;11.90;99.90
39675;DHT22;27790;50.840;4.386;2022-11-04T18:09:15;11.90;99.90
39675;DHT22;27790;50.840;4.386;2022-11-04T18:11:42;11.90;99.90
39675;DHT22;27790;50.840;4.386;2022-11-04T18:14:18;11.80;99.90
39675;DHT22;27790;50.840;4.386;2022-11-04T18:16:46;11.80;99.90
39675;DHT22;27790;50.840;4.386;2022-11-04T18:19:12;11.70;99.90
39675;DHT22;27790;50.840;4.386;2022-11-04T18:21:38;11.60;99.90
39675;DHT22;27790;50.840;4.386;2022-11-04T18:24:04;11.70;99.90
39675;DHT22;27790;50.840;4.386;2022-11-04T18:26:30;11.60;99.90
39675;DHT22;27790;50.840;4.386;2022-11-04T18:28:56;11.50;99.90
39675;DHT22;27790;50.840;4.386;2022-11-04T18:31:27;11.60;99.90
39675;DHT22;27790;50.840;4.386;2022-11-04T18:33:54;11.50;99.90
39675;DHT22;27790;50.840;4.386;2022-11-04T18:36:20;11.40;99.90
39675;DHT22;27790;50.840;4.386;2022-11-04T18:38:46;11.40;99.90
39675;DHT22;27790;50.840;4.386;2022-11-04T18:41:12;11.40;99.90